Time;durP1;ratioP1;P1;durP2;ratioP2;P2;SDS_P1;SDS_P2;PMS_P1;PMS_P2;Temp;Humidity;BMP_temperature;BMP_pressure;BME280_temperature;BME280_humidity;BME280_pressure;Samples;Min_cycle;Max_cycle;Signal;HPM_P1;HPM_P2
2023/04/18 00:01:09;;;;;;;22.27;9.35;;;;;;;7.83;100.00;102168.06;5057449;28;20518;-77
2023/04/18 00:03:37;;;;;;;21.67;8.80;;;;;;;7.76;100.00;102167.94;5058887;28;20139;-75
2023/04/18 00:06:04;;;;;;;21.63;9.13;;;;;;;7.72;100.00;102156.75;5057694;28;20054;-77
2023/04/18 00:08:32;;;;;;;22.27;9.80;;;;;;;7.68;100.00;102161.44;5061112;28;20059;-72
2023/04/18 00:10:59;;;;;;;18.98;9.43;;;;;;;7.64;100.00;102159.75;5052744;28;20430;-76
2023/04/18 00:13:27;;;;;;;19.00;9.60;;;;;;;7.61;100.00;102160.47;5055502;28;20040;-76
2023/04/18 00:15:53;;;;;;;21.52;9.85;;;;;;;7.54;100.00;102152.81;5061649;28;20055;-78
2023/04/18 00:18:20;;;;;;;18.48;9.68;;;;;;;7.52;100.00;102158.72;5064953;28;20517;-74
2023/04/18 00:20:47;;;;;;;20.40;9.73;;;;;;;7.50;100.00;102155.50;5063411;28;20049;-73
2023/04/18 00:23:14;;;;;;;21.13;9.73;;;;;;;7.45;100.00;102164.09;5062540;28;20049;-72
2023/04/18 00:25:40;;;;;;;21.02;9.23;;;;;;;7.34;100.00;102154.78;5061038;28;20107;-74
2023/04/18 00:28:07;;;;;;;19.60;9.48;;;;;;;7.33;100.00;102160.66;5060396;28;20063;-79
2023/04/18 00:30:33;;;;;;;19.90;9.73;;;;;;;7.32;100.00;102151.56;5065190;28;20044;-73
2023/04/18 00:33:00;;;;;;;21.02;9.70;;;;;;;7.31;100.00;102161.03;5059258;28;20067;-76
2023/04/18 00:35:27;;;;;;;18.88;9.57;;;;;;;7.20;100.00;102159.94;5058825;28;20044;-74
2023/04/18 00:37:53;;;;;;;21.00;9.93;;;;;;;7.23;100.00;102153.69;5056909;28;20419;-78
2023/04/18 00:40:19;;;;;;;25.65;10.35;;;;;;;7.16;100.00;102150.78;5059364;28;20400;-75
2023/04/18 00:42:46;;;;;;;20.95;8.50;;;;;;;7.14;100.00;102158.66;4994871;28;20053;-73
2023/04/18 00:45:12;;;;;;;16.60;7.93;;;;;;;7.14;100.00;102163.38;5014072;28;20062;-74
2023/04/18 00:47:39;;;;;;;20.35;8.85;;;;;;;7.12;100.00;102160.16;5017738;28;20080;-77
2023/04/18 00:50:07;;;;;;;19.50;9.70;;;;;;;7.06;100.00;102156.84;5019459;28;20046;-73
2023/04/18 00:52:34;;;;;;;21.33;8.63;;;;;;;7.05;100.00;102158.00;5012889;28;20060;-75
2023/04/18 00:55:06;;;;;;;19.45;9.45;;;;;;;7.02;100.00;102158.72;5027003;28;20049;-73
2023/04/18 00:57:33;;;;;;;18.95;9.00;;;;;;;6.93;100.00;102157.31;5014841;28;20060;-74
2023/04/18 01:00:00;;;;;;;17.45;7.60;;;;;;;6.91;100.00;102149.38;5012588;28;20499;-76
2023/04/18 01:02:30;;;;;;;18.83;8.77;;;;;;;6.92;100.00;102156.50;5009978;28;20058;-74
2023/04/18 01:04:57;;;;;;;19.08;8.75;;;;;;;6.87;100.00;102148.47;5014893;28;20046;-73
2023/04/18 01:07:25;;;;;;;18.38;9.25;;;;;;;6.76;100.00;102150.16;5013556;28;20144;-78
2023/04/18 01:09:52;;;;;;;14.32;6.70;;;;;;;6.66;100.00;102153.47;5009271;28;20050;-72
2023/04/18 01:12:19;;;;;;;19.27;8.60;;;;;;;6.68;100.00;102150.34;5014624;28;20053;-76
2023/04/18 01:14:45;;;;;;;16.15;8.07;;;;;;;6.64;100.00;102144.75;5009887;28;20046;-72
2023/04/18 01:17:12;;;;;;;16.35;8.05;;;;;;;6.66;100.00;102155.44;5009192;28;20057;-73
2023/04/18 01:19:39;;;;;;;20.00;8.57;;;;;;;6.62;100.00;102151.78;5007223;28;20058;-73
2023/04/18 01:22:11;;;;;;;18.08;8.32;;;;;;;6.63;100.00;102147.88;5006910;28;20497;-73
2023/04/18 01:24:38;;;;;;;15.93;6.93;;;;;;;6.58;100.00;102148.13;5007451;28;20540;-76
2023/04/18 01:27:05;;;;;;;18.00;8.32;;;;;;;6.53;100.00;102142.88;5007203;28;20049;-74
2023/04/18 01:29:31;;;;;;;17.38;7.43;;;;;;;6.50;100.00;102146.34;5007507;28;20505;-72
2023/04/18 01:31:58;;;;;;;18.38;8.45;;;;;;;6.47;100.00;102138.75;5006387;28;20412;-77
2023/04/18 01:34:25;;;;;;;18.23;8.10;;;;;;;6.44;100.00;102151.31;5018995;28;20093;-74
2023/04/18 01:36:51;;;;;;;17.95;7.40;;;;;;;6.39;100.00;102143.28;5015996;28;20057;-73
2023/04/18 01:39:18;;;;;;;17.95;8.02;;;;;;;6.35;100.00;102133.31;5020124;28;20067;-74
2023/04/18 01:41:44;;;;;;;16.85;7.18;;;;;;;6.32;100.00;102137.56;5009042;28;20049;-74
2023/04/18 01:44:13;;;;;;;19.80;7.22;;;;;;;6.34;100.00;102140.78;5008164;28;20046;-73
2023/04/18 01:46:40;;;;;;;17.65;8.75;;;;;;;6.29;100.00;102143.84;5017574;28;20046;-73
2023/04/18 01:49:07;;;;;;;17.02;8.35;;;;;;;6.25;100.00;102131.06;5017654;28;20710;-75
2023/04/18 01:51:34;;;;;;;17.10;8.27;;;;;;;6.21;100.00;102136.50;5007954;28;20049;-77
2023/04/18 01:54:00;;;;;;;16.42;7.55;;;;;;;6.18;100.00;102137.19;5014716;28;20050;-73
2023/04/18 01:56:27;;;;;;;18.75;8.25;;;;;;;6.17;100.00;102129.25;5018566;28;20544;-77
2023/04/18 01:58:54;;;;;;;14.85;7.10;;;;;;;6.14;100.00;102124.44;5005504;28;20837;-77
2023/04/18 02:01:20;;;;;;;18.27;6.78;;;;;;;6.14;100.00;102125.25;5006292;28;20066;-74
2023/04/18 02:03:47;;;;;;;16.65;7.60;;;;;;;6.12;100.00;102129.53;5006912;28;20049;-75
2023/04/18 02:06:14;;;;;;;17.58;7.43;;;;;;;6.04;100.00;102123.00;5013421;28;20056;-77
2023/04/18 02:08:40;;;;;;;16.90;7.40;;;;;;;6.02;100.00;102114.28;5019152;28;20045;-73
2023/04/18 02:11:07;;;;;;;16.85;7.82;;;;;;;6.03;100.00;102124.19;5027094;28;20594;-76
2023/04/18 02:13:33;;;;;;;17.52;7.93;;;;;;;6.07;100.00;102125.06;5022039;28;20049;-73
2023/04/18 02:16:00;;;;;;;16.33;7.47;;;;;;;6.04;100.00;102117.50;5014088;28;20054;-76
2023/04/18 02:18:26;;;;;;;18.70;6.75;;;;;;;6.04;100.00;102125.00;5017605;28;20132;-74
2023/04/18 02:20:53;;;;;;;18.92;7.47;;;;;;;6.02;100.00;102121.75;5017291;28;20041;-73
2023/04/18 02:23:19;;;;;;;19.40;7.38;;;;;;;6.03;100.00;102115.91;5016531;28;20077;-74
2023/04/18 02:25:46;;;;;;;16.00;7.10;;;;;;;5.96;100.00;102118.47;5020883;28;20155;-74
2023/04/18 02:28:12;;;;;;;16.35;6.68;;;;;;;6.01;100.00;102122.94;5028848;28;20076;-73
2023/04/18 02:30:39;;;;;;;11.25;5.43;;;;;;;5.97;100.00;102120.06;5012043;28;20049;-75
2023/04/18 02:33:05;;;;;;;16.30;7.72;;;;;;;5.97;100.00;102114.53;5011250;28;20136;-74
2023/04/18 02:35:36;;;;;;;14.50;6.50;;;;;;;6.00;100.00;102124.88;5014311;28;20132;-71
2023/04/18 02:38:03;;;;;;;16.23;6.55;;;;;;;5.98;100.00;102120.88;5009842;28;20591;-72
2023/04/18 02:40:29;;;;;;;17.27;8.15;;;;;;;5.89;100.00;102117.47;5012972;28;20053;-73
2023/04/18 02:42:57;;;;;;;16.13;7.68;;;;;;;5.90;100.00;102119.88;5023879;28;20045;-74
2023/04/18 02:45:23;;;;;;;15.60;7.68;;;;;;;5.89;100.00;102120.22;5020073;28;20136;-74
2023/04/18 02:47:49;;;;;;;18.05;7.65;;;;;;;5.86;100.00;102118.97;5016806;28;20049;-76
2023/04/18 02:50:22;;;;;;;17.75;6.45;;;;;;;5.85;100.00;102122.09;5016029;28;20061;-74
2023/04/18 02:52:49;;;;;;;15.88;6.93;;;;;;;5.87;100.00;102123.31;5016556;28;20041;-78
2023/04/18 02:55:16;;;;;;;16.63;7.32;;;;;;;5.84;100.00;102126.78;5014747;28;22026;-73
2023/04/18 02:57:42;;;;;;;15.07;7.18;;;;;;;5.82;100.00;102120.84;5008920;28;20651;-74
2023/04/18 03:00:09;;;;;;;15.95;7.07;;;;;;;5.80;100.00;102125.88;5013967;28;20500;-74
2023/04/18 03:02:35;;;;;;;15.68;6.90;;;;;;;5.76;100.00;102129.69;5016810;28;20053;-73
2023/04/18 03:05:02;;;;;;;14.50;6.95;;;;;;;5.75;100.00;102126.16;5015809;28;20084;-74
2023/04/18 03:07:29;;;;;;;17.23;7.60;;;;;;;5.73;100.00;102120.16;5012144;28;20068;-74
2023/04/18 03:09:56;;;;;;;17.05;7.55;;;;;;;5.69;100.00;102129.50;5014609;28;20049;-74
2023/04/18 03:12:23;;;;;;;18.75;8.20;;;;;;;5.62;100.00;102119.06;5019593;28;20064;-74
2023/04/18 03:14:49;;;;;;;15.77;7.80;;;;;;;5.59;100.00;102114.25;5023961;28;20527;-72
2023/04/18 03:17:16;;;;;;;11.30;5.25;;;;;;;5.60;100.00;102126.09;5018672;28;20155;-73
2023/04/18 03:19:45;;;;;;;16.17;7.20;;;;;;;5.65;100.00;102131.34;5011027;28;20058;-71
2023/04/18 03:22:13;;;;;;;16.33;6.68;;;;;;;5.63;100.00;102126.19;5012662;28;20053;-74
2023/04/18 03:24:39;;;;;;;16.38;7.35;;;;;;;5.59;100.00;102130.81;5027469;28;20069;-73
2023/04/18 03:27:06;;;;;;;17.95;8.05;;;;;;;5.60;100.00;102131.63;5014178;28;20484;-73
2023/04/18 03:29:33;;;;;;;15.57;6.88;;;;;;;5.61;100.00;102134.00;5012451;28;20053;-76
2023/04/18 03:31:59;;;;;;;20.33;7.68;;;;;;;5.57;100.00;102135.06;5026884;28;20124;-74
2023/04/18 03:34:26;;;;;;;19.48;8.20;;;;;;;5.54;100.00;102133.78;5017156;28;20054;-74
2023/04/18 03:36:53;;;;;;;17.27;8.18;;;;;;;5.49;100.00;102124.97;5020056;28;20500;-73
2023/04/18 03:39:19;;;;;;;16.90;8.40;;;;;;;5.55;100.00;102132.66;5012464;28;20068;-74
2023/04/18 03:41:46;;;;;;;18.55;7.97;;;;;;;5.53;100.00;102129.44;5015759;28;20539;-72
2023/04/18 03:44:12;;;;;;;16.35;8.30;;;;;;;5.54;100.00;102122.75;5017855;28;20061;-76
2023/04/18 03:46:40;;;;;;;21.15;9.13;;;;;;;5.58;100.00;102122.88;5008948;28;20085;-77
2023/04/18 03:49:06;;;;;;;18.67;8.55;;;;;;;5.62;100.00;102129.28;5009018;28;20119;-72
2023/04/18 03:51:41;;;;;;;16.63;8.35;;;;;;;5.65;100.00;102134.13;5014995;28;20050;-74
2023/04/18 03:54:08;;;;;;;18.80;8.63;;;;;;;5.66;100.00;102133.75;5014150;28;20053;-73
2023/04/18 03:56:35;;;;;;;20.95;9.25;;;;;;;5.68;100.00;102128.72;5011442;28;20056;-73
2023/04/18 03:59:01;;;;;;;21.92;8.80;;;;;;;5.70;100.00;102136.59;5017578;28;20136;-73
2023/04/18 04:01:27;;;;;;;18.27;8.80;;;;;;;5.66;100.00;102135.72;5020391;28;20077;-73
2023/04/18 04:03:54;;;;;;;19.25;8.93;;;;;;;5.72;100.00;102140.66;5007972;28;20050;-76
2023/04/18 04:06:21;;;;;;;10.18;4.80;;;;;;;5.70;100.00;102137.44;5006870;28;20068;-77
2023/04/18 04:08:48;;;;;;;18.92;8.45;;;;;;;5.75;100.00;102145.47;5024831;28;20133;-72
2023/04/18 04:11:14;;;;;;;20.02;9.43;;;;;;;5.77;100.00;102147.88;5018845;28;20054;-74
2023/04/18 04:13:41;;;;;;;18.08;8.38;;;;;;;5.84;100.00;102150.84;5014567;28;20072;-73
2023/04/18 04:16:07;;;;;;;19.35;9.93;;;;;;;5.85;100.00;102147.75;5020290;28;20057;-78
2023/04/18 04:18:34;;;;;;;21.40;10.43;;;;;;;5.89;100.00;102150.56;5025369;28;20057;-75
2023/04/18 04:21:02;;;;;;;20.17;9.63;;;;;;;5.92;100.00;102153.44;5015708;28;20050;-72
2023/04/18 04:23:28;;;;;;;19.38;10.45;;;;;;;5.91;100.00;102151.81;5017591;28;20382;-75
2023/04/18 04:25:55;;;;;;;18.50;9.38;;;;;;;5.98;100.00;102154.00;5015062;28;20050;-71
2023/04/18 04:28:22;;;;;;;19.25;8.60;;;;;;;6.03;100.00;102157.31;5016665;28;20539;-75
2023/04/18 04:30:49;;;;;;;18.65;9.05;;;;;;;6.06;100.00;102158.56;5015868;28;20049;-73
2023/04/18 04:33:20;;;;;;;19.63;10.32;;;;;;;6.02;100.00;102155.72;5019583;28;20064;-76
2023/04/18 04:35:46;;;;;;;29.40;10.45;;;;;;;6.08;100.00;102156.25;5024017;28;20057;-75
2023/04/18 04:38:14;;;;;;;19.20;9.52;;;;;;;6.06;100.00;102155.78;5013341;28;20058;-73
2023/04/18 04:40:41;;;;;;;13.82;6.80;;;;;;;6.04;100.00;102161.66;5016856;28;20500;-73
2023/04/18 04:43:11;;;;;;;21.10;9.80;;;;;;;6.10;100.00;102171.31;5020665;28;20037;-74
2023/04/18 04:45:40;;;;;;;19.40;9.18;;;;;;;6.12;100.00;102168.19;5015741;28;20053;-73
2023/04/18 04:48:08;;;;;;;19.52;8.68;;;;;;;6.15;100.00;102173.81;5016025;28;20061;-75
2023/04/18 04:50:39;;;;;;;20.15;9.68;;;;;;;6.16;100.00;102167.16;5017259;28;20424;-75
2023/04/18 04:53:05;;;;;;;16.50;8.05;;;;;;;6.18;100.00;102170.34;5019326;28;20444;-73
2023/04/18 04:55:32;;;;;;;19.13;9.57;;;;;;;6.24;100.00;102179.16;5021609;28;20423;-74
2023/04/18 04:57:59;;;;;;;18.98;9.75;;;;;;;6.25;100.00;102192.63;5007601;28;20049;-74
2023/04/18 05:00:25;;;;;;;19.27;9.65;;;;;;;6.27;100.00;102187.56;5009651;28;20068;-73
2023/04/18 05:02:58;;;;;;;22.25;9.52;;;;;;;6.26;100.00;102191.50;5022656;28;20041;-75
2023/04/18 05:05:25;;;;;;;21.02;10.63;;;;;;;6.33;100.00;102185.34;5016639;28;20531;-73
2023/04/18 05:07:54;;;;;;;20.33;9.75;;;;;;;6.28;100.00;102180.88;5010130;28;20053;-75
2023/04/18 05:10:22;;;;;;;23.02;10.52;;;;;;;6.32;100.00;102189.28;5025009;28;20057;-73
2023/04/18 05:12:48;;;;;;;17.70;9.32;;;;;;;6.32;100.00;102181.78;5015713;28;20134;-73
2023/04/18 05:15:15;;;;;;;17.90;8.18;;;;;;;6.36;100.00;102190.16;5014772;28;20089;-72
2023/04/18 05:17:42;;;;;;;19.58;9.43;;;;;;;6.39;100.00;102189.47;5013501;28;20471;-72
2023/04/18 05:20:09;;;;;;;21.13;9.90;;;;;;;6.42;100.00;102197.84;5012784;28;20045;-73
2023/04/18 05:22:36;;;;;;;18.77;8.93;;;;;;;6.44;100.00;102195.53;5021072;28;20431;-76
2023/04/18 05:25:05;;;;;;;19.40;8.75;;;;;;;6.45;100.00;102199.88;5010721;28;20058;-73
2023/04/18 05:27:32;;;;;;;18.85;8.23;;;;;;;6.44;100.00;102190.00;5018204;28;20419;-74
2023/04/18 05:29:58;;;;;;;10.15;5.03;;;;;;;6.43;100.00;102188.41;5009248;28;20053;-73
2023/04/18 05:32:25;;;;;;;18.95;8.73;;;;;;;6.46;100.00;102192.41;5010626;28;20637;-72
2023/04/18 05:34:51;;;;;;;19.33;9.63;;;;;;;6.45;100.00;102197.13;5013977;28;20141;-75
2023/04/18 05:37:18;;;;;;;20.50;9.23;;;;;;;6.45;100.00;102199.09;5019956;28;20054;-75
2023/04/18 05:39:45;;;;;;;18.40;9.32;;;;;;;6.36;100.00;102201.22;5014834;28;20053;-74
2023/04/18 05:42:11;;;;;;;21.50;9.10;;;;;;;6.37;100.00;102211.91;5011719;28;20071;-73
2023/04/18 05:44:38;;;;;;;18.67;8.27;;;;;;;6.35;100.00;102211.44;5015611;28;20057;-72
2023/04/18 05:47:04;;;;;;;18.42;8.45;;;;;;;6.32;100.00;102217.69;5033508;28;20057;-75
2023/04/18 05:49:32;;;;;;;19.23;8.80;;;;;;;6.33;100.00;102213.78;5023494;28;20157;-73
2023/04/18 05:51:59;;;;;;;17.98;8.88;;;;;;;6.29;100.00;102218.41;5031889;28;20045;-74
2023/04/18 05:54:26;;;;;;;19.73;9.23;;;;;;;6.30;100.00;102214.50;5013777;28;20056;-75
2023/04/18 05:56:53;;;;;;;20.67;9.60;;;;;;;6.28;100.00;102221.53;5011215;28;20049;-73
2023/04/18 05:59:20;;;;;;;19.88;9.27;;;;;;;6.26;100.00;102216.34;5015763;28;20596;-74
2023/04/18 06:01:48;;;;;;;19.45;8.55;;;;;;;6.28;100.00;102219.53;5002539;28;20060;-73
2023/04/18 06:04:15;;;;;;;21.52;9.75;;;;;;;6.30;100.00;102221.97;5018848;28;20053;-76
2023/04/18 06:06:42;;;;;;;20.05;9.18;;;;;;;6.31;100.00;102218.03;5021301;28;20053;-75
2023/04/18 06:09:10;;;;;;;21.00;9.52;;;;;;;6.34;100.00;102229.19;5017802;28;20164;-73
2023/04/18 06:11:37;;;;;;;20.75;10.40;;;;;;;6.36;100.00;102221.38;5015793;28;20052;-72
2023/04/18 06:14:03;;;;;;;20.17;9.93;;;;;;;6.41;100.00;102221.09;5018533;28;20046;-74
2023/04/18 06:16:30;;;;;;;21.23;10.15;;;;;;;6.48;100.00;102235.09;5018108;28;20054;-74
2023/04/18 06:18:57;;;;;;;14.68;7.20;;;;;;;6.53;100.00;102229.34;5017064;28;20057;-78
2023/04/18 06:21:26;;;;;;;20.17;8.70;;;;;;;6.65;100.00;102240.31;5022988;28;20050;-76
2023/04/18 06:23:53;;;;;;;20.65;10.55;;;;;;;6.74;100.00;102234.63;5009779;28;20054;-78
2023/04/18 06:26:20;;;;;;;18.85;8.63;;;;;;;6.81;100.00;102238.38;5015572;28;20133;-76
2023/04/18 06:28:46;;;;;;;18.77;9.20;;;;;;;6.93;100.00;102235.50;5011778;28;20133;-75
2023/04/18 06:31:13;;;;;;;21.17;11.05;;;;;;;6.97;100.00;102247.50;5017405;28;20056;-74
2023/04/18 06:33:39;;;;;;;18.88;9.20;;;;;;;7.07;100.00;102247.00;5016745;28;20056;-76
2023/04/18 06:36:07;;;;;;;22.35;11.43;;;;;;;7.08;100.00;102251.34;5020148;28;20053;-74
2023/04/18 06:38:34;;;;;;;19.38;9.93;;;;;;;7.16;100.00;102249.56;5022237;28;20064;-78
2023/04/18 06:41:00;;;;;;;20.38;10.73;;;;;;;7.09;100.00;102246.59;5014836;28;20472;-74
2023/04/18 06:43:27;;;;;;;23.52;10.40;;;;;;;7.09;100.00;102250.19;5014659;28;20050;-73
2023/04/18 06:45:55;;;;;;;19.88;9.05;;;;;;;7.11;100.00;102253.41;5012744;28;20412;-73
2023/04/18 06:48:22;;;;;;;21.88;11.07;;;;;;;7.14;100.00;102251.88;5010731;28;20049;-76
2023/04/18 06:50:48;;;;;;;20.40;10.10;;;;;;;7.12;100.00;102252.22;5020577;28;20046;-78
2023/04/18 06:53:15;;;;;;;21.27;10.85;;;;;;;7.12;100.00;102251.41;5020099;28;20053;-77
2023/04/18 06:55:41;;;;;;;20.48;10.25;;;;;;;7.09;100.00;102249.38;5016715;28;20057;-76
2023/04/18 06:58:08;;;;;;;21.45;10.35;;;;;;;7.14;100.00;102255.47;5021642;28;20045;-78
2023/04/18 07:00:35;;;;;;;21.50;11.52;;;;;;;7.15;100.00;102270.06;5021555;28;20073;-76
2023/04/18 07:03:08;;;;;;;24.50;12.30;;;;;;;7.06;100.00;102248.13;5021875;28;20053;-77
2023/04/18 07:05:37;;;;;;;20.40;10.55;;;;;;;7.10;100.00;102262.84;5011640;28;20501;-75
2023/04/18 07:08:03;;;;;;;21.08;10.68;;;;;;;7.23;100.00;102275.44;5022795;28;20083;-74
2023/04/18 07:10:30;;;;;;;23.92;12.05;;;;;;;7.24;100.00;102263.22;5023189;28;20148;-75
2023/04/18 07:12:56;;;;;;;25.35;11.85;;;;;;;7.22;100.00;102264.72;5026976;28;20440;-79
2023/04/18 07:15:23;;;;;;;20.00;10.02;;;;;;;7.30;100.00;102263.75;5019986;28;20141;-78
2023/04/18 07:17:50;;;;;;;21.45;11.05;;;;;;;7.35;100.00;102269.00;5012519;28;20495;-76
2023/04/18 07:20:16;;;;;;;22.27;12.40;;;;;;;7.34;100.00;102275.69;5026661;28;20053;-76
2023/04/18 07:22:43;;;;;;;26.20;12.43;;;;;;;7.33;100.00;102272.13;5022092;28;20060;-74
2023/04/18 07:25:09;;;;;;;23.30;13.50;;;;;;;7.37;100.00;102275.00;5009626;28;20060;-77
2023/04/18 07:27:36;;;;;;;21.20;10.63;;;;;;;7.42;100.00;102278.28;5021008;28;20053;-77
2023/04/18 07:30:03;;;;;;;23.65;10.30;;;;;;;7.46;100.00;102278.34;5032599;28;20418;-74
2023/04/18 07:32:30;;;;;;;23.35;12.13;;;;;;;7.52;100.00;102280.50;5021079;28;20050;-74
2023/04/18 07:34:57;;;;;;;26.98;13.20;;;;;;;7.55;100.00;102278.97;5012340;28;20053;-75
2023/04/18 07:37:25;;;;;;;24.45;13.80;;;;;;;7.54;100.00;102288.44;5014334;28;20050;-78
2023/04/18 07:39:51;;;;;;;25.27;13.50;;;;;;;7.60;100.00;102284.25;5008617;28;20120;-75
2023/04/18 07:42:18;;;;;;;28.75;15.13;;;;;;;7.62;100.00;102290.22;5009419;28;20060;-76
2023/04/18 07:44:45;;;;;;;27.17;14.52;;;;;;;7.57;100.00;102298.81;5014302;28;20419;-75
2023/04/18 07:47:12;;;;;;;26.05;13.43;;;;;;;7.48;100.00;102282.38;5019578;28;20051;-79
2023/04/18 07:49:38;;;;;;;25.20;12.52;;;;;;;7.47;100.00;102283.53;5017193;28;20428;-74
2023/04/18 07:52:05;;;;;;;29.00;11.70;;;;;;;7.42;100.00;102291.31;5018691;28;20103;-75
2023/04/18 07:54:31;;;;;;;30.75;14.45;;;;;;;7.45;100.00;102290.59;5019686;28;20045;-76
2023/04/18 07:56:58;;;;;;;24.60;12.52;;;;;;;7.44;100.00;102286.22;5016857;28;20136;-75
2023/04/18 07:59:25;;;;;;;27.25;13.82;;;;;;;7.44;100.00;102292.53;5019451;28;20068;-74
2023/04/18 08:01:51;;;;;;;27.08;12.98;;;;;;;7.46;100.00;102297.72;5024017;28;20423;-73
2023/04/18 08:04:18;;;;;;;29.75;13.93;;;;;;;7.52;100.00;102292.75;5012768;28;20535;-77
2023/04/18 08:06:45;;;;;;;27.98;13.80;;;;;;;7.63;100.00;102282.72;5017293;28;20154;-77
2023/04/18 08:09:11;;;;;;;25.50;12.45;;;;;;;7.70;100.00;102274.56;5019763;28;20073;-73
2023/04/18 08:11:41;;;;;;;22.70;9.60;;;;;;;7.80;100.00;102285.88;5008526;28;20072;-77
2023/04/18 08:14:07;;;;;;;26.20;13.25;;;;;;;7.77;100.00;102285.81;5017426;28;20064;-75
2023/04/18 08:16:34;;;;;;;24.65;12.68;;;;;;;7.85;100.00;102287.56;5034199;28;20056;-74
2023/04/18 08:19:00;;;;;;;28.23;12.55;;;;;;;7.90;100.00;102290.06;5009816;28;20057;-75
2023/04/18 08:21:30;;;;;;;27.73;12.85;;;;;;;7.91;100.00;102298.03;5014607;28;20054;-75
2023/04/18 08:23:57;;;;;;;24.30;12.30;;;;;;;7.90;100.00;102298.38;5019195;28;20042;-76
2023/04/18 08:26:24;;;;;;;24.95;11.98;;;;;;;7.86;100.00;102294.72;5023264;28;20053;-79
2023/04/18 08:28:51;;;;;;;23.98;9.77;;;;;;;7.91;100.00;102292.47;5023147;28;20054;-74
2023/04/18 08:31:17;;;;;;;22.65;10.98;;;;;;;7.96;100.00;102302.44;5022978;28;20757;-77
2023/04/18 08:33:44;;;;;;;25.45;11.75;;;;;;;7.91;100.00;102288.91;5010585;28;20584;-77
2023/04/18 08:36:10;;;;;;;27.73;13.38;;;;;;;7.98;100.00;102297.34;5013843;28;20400;-74
2023/04/18 08:38:37;;;;;;;13.73;5.55;;;;;;;7.98;100.00;102300.94;5019910;28;20049;-77
2023/04/18 08:41:04;;;;;;;24.80;13.18;;;;;;;8.07;100.00;102297.97;5016960;28;20492;-74
2023/04/18 08:43:30;;;;;;;24.05;12.23;;;;;;;8.15;100.00;102296.94;5029037;28;20052;-74
2023/04/18 08:45:58;;;;;;;25.23;12.00;;;;;;;8.24;100.00;102292.00;5018920;28;20161;-74
2023/04/18 08:48:28;;;;;;;25.42;13.02;;;;;;;8.31;100.00;102306.78;5027482;28;21656;-76
2023/04/18 08:50:59;;;;;;;22.10;10.20;;;;;;;8.33;100.00;102310.00;5023601;28;20072;-73
2023/04/18 08:53:25;;;;;;;24.77;12.57;;;;;;;8.32;100.00;102305.66;5018957;28;20057;-78
2023/04/18 08:55:56;;;;;;;23.05;10.48;;;;;;;8.31;100.00;102306.00;5015936;28;20061;-75
2023/04/18 08:58:25;;;;;;;25.75;12.85;;;;;;;8.34;100.00;102303.28;5011684;28;20053;-76
2023/04/18 09:00:53;;;;;;;26.42;13.60;;;;;;;8.36;100.00;102294.63;5011153;28;20440;-75
2023/04/18 09:03:39;;;;;;;27.30;15.13;;;;;;;8.32;100.00;102302.88;5010955;28;20053;-76
2023/04/18 09:06:12;;;;;;;22.20;11.27;;;;;;;8.28;100.00;102302.00;5014252;28;20057;-76
2023/04/18 09:08:42;;;;;;;24.35;12.13;;;;;;;8.23;100.00;102299.50;5011009;28;20104;-74
2023/04/18 09:11:27;;;;;;;27.63;14.10;;;;;;;8.24;100.00;102305.84;5014976;28;20471;-78
2023/04/18 09:13:57;;;;;;;26.33;11.80;;;;;;;8.18;100.00;102301.75;5010089;28;20111;-77
2023/04/18 09:16:26;;;;;;;25.45;13.23;;;;;;;8.16;100.00;102306.84;5021190;28;20816;-75
2023/04/18 09:19:17;;;;;;;25.00;12.52;;;;;;;8.15;100.00;102308.03;5020272;28;20132;-75
2023/04/18 09:21:47;;;;;;;18.15;8.70;;;;;;;8.13;100.00;102302.84;5014708;28;20069;-77
2023/04/18 09:24:28;;;;;;;21.42;9.60;;;;;;;8.16;100.00;102298.53;5008546;28;20101;-77
2023/04/18 09:26:57;;;;;;;26.52;14.05;;;;;;;8.14;100.00;102304.44;5015033;28;20064;-78
2023/04/18 09:29:48;;;;;;;26.70;13.70;;;;;;;8.15;100.00;102308.03;5013168;28;20049;-76
2023/04/18 09:32:26;;;;;;;25.98;13.45;;;;;;;8.17;100.00;102312.03;5007171;28;20416;-74
2023/04/18 09:34:56;;;;;;;30.33;16.98;;;;;;;8.23;100.00;102315.31;5019988;28;20085;-76
2023/04/18 09:37:24;;;;;;;25.77;14.77;;;;;;;8.20;100.00;102318.84;5013023;28;20116;-78
2023/04/18 09:39:51;;;;;;;25.77;14.00;;;;;;;8.21;100.00;102317.66;5011416;28;20050;-76
2023/04/18 09:42:18;;;;;;;29.88;15.43;;;;;;;8.20;100.00;102310.53;5015353;28;20153;-72
2023/04/18 09:45:04;;;;;;;29.08;15.45;;;;;;;8.21;100.00;102312.13;5011996;28;20052;-75
2023/04/18 09:47:36;;;;;;;29.00;15.93;;;;;;;8.24;100.00;102303.09;5023405;28;20504;-76
2023/04/18 09:50:05;;;;;;;20.92;9.63;;;;;;;8.35;100.00;102301.34;5023764;28;20110;-76
2023/04/18 09:52:34;;;;;;;26.58;13.27;;;;;;;8.41;100.00;102305.44;5015496;28;20050;-77
2023/04/18 09:55:03;;;;;;;27.75;14.25;;;;;;;8.49;100.00;102299.66;5015111;28;20120;-75
2023/04/18 09:57:32;;;;;;;30.33;12.93;;;;;;;8.53;100.00;102300.53;5019124;28;20072;-77
2023/04/18 10:00:12;;;;;;;27.38;14.23;;;;;;;8.63;100.00;102296.38;5013905;28;20141;-75
2023/04/18 10:02:48;;;;;;;29.00;14.32;;;;;;;8.73;100.00;102298.56;5024628;28;20061;-77
2023/04/18 10:05:15;;;;;;;;;;;;;;;8.85;100.00;102296.41;5026912;28;20153;-73
2023/04/18 10:07:48;;;;;;;29.63;13.48;;;;;;;8.93;100.00;102305.69;5024302;28;19956;-79
2023/04/18 10:10:15;;;;;;;26.85;13.82;;;;;;;9.00;100.00;102300.25;5018969;28;20069;-79
2023/04/18 10:12:42;;;;;;;27.35;14.23;;;;;;;9.13;100.00;102296.16;5009515;28;20045;-76
2023/04/18 10:15:10;;;;;;;20.88;9.45;;;;;;;9.17;100.00;102300.59;5017970;28;20527;-76
2023/04/18 10:17:45;;;;;;;25.60;13.40;;;;;;;9.21;100.00;102298.66;5014346;28;20054;-75
2023/04/18 10:20:31;;;;;;;22.85;10.52;;;;;;;9.26;100.00;102297.56;5022474;28;20489;-75
2023/04/18 10:22:58;;;;;;;27.77;14.63;;;;;;;9.35;100.00;102295.31;5013997;28;20500;-77
2023/04/18 10:25:37;;;;;;;26.08;12.32;;;;;;;9.40;100.00;102292.25;5010189;28;20049;-74
2023/04/18 10:28:05;;;;;;;25.20;13.73;;;;;;;9.38;100.00;102303.72;5015628;28;20096;-75
2023/04/18 10:30:40;;;;;;;27.30;13.35;;;;;;;9.48;100.00;102300.31;5017187;28;20057;-74
2023/04/18 10:33:19;;;;;;;;;;;;;;;9.64;100.00;102298.19;5010864;28;20080;-76
2023/04/18 10:35:59;;;;;;;23.27;12.07;;;;;;;9.74;100.00;102280.91;5016793;28;19921;-75
2023/04/18 10:38:26;;;;;;;23.27;11.07;;;;;;;9.80;100.00;102298.03;5025894;28;20056;-79
2023/04/18 10:41:15;;;;;;;27.23;15.77;;;;;;;9.87;100.00;102292.59;5018660;28;20057;-75
2023/04/18 10:44:08;;;;;;;29.27;14.05;;;;;;;9.93;100.00;102289.09;5020487;28;20432;-77
2023/04/18 10:46:42;;;;;;;30.38;13.40;;;;;;;9.99;100.00;102284.03;5010224;28;20050;-76
2023/04/18 10:49:25;;;;;;;26.85;14.10;;;;;;;10.08;100.00;102279.00;5010149;28;20237;-79
2023/04/18 10:52:00;;;;;;;28.88;15.43;;;;;;;10.16;100.00;102283.47;5023176;28;20514;-77
2023/04/18 10:54:53;;;;;;;27.80;14.32;;;;;;;10.27;100.00;102278.88;5020549;28;20038;-75
2023/04/18 10:57:23;;;;;;;27.30;13.65;;;;;;;10.39;100.00;102275.06;5025988;28;20049;-75
2023/04/18 10:59:51;;;;;;;29.67;14.40;;;;;;;10.55;100.00;102273.66;5016274;28;20129;-75
2023/04/18 11:02:30;;;;;;;25.58;14.38;;;;;;;10.69;100.00;102273.00;5021889;28;20046;-74
2023/04/18 11:04:59;;;;;;;28.15;14.45;;;;;;;10.81;100.00;102279.09;5015123;28;20042;-78
2023/04/18 11:07:47;;;;;;;27.13;13.55;;;;;;;10.87;100.00;102271.22;5019217;28;20046;-76
2023/04/18 11:10:19;;;;;;;27.75;14.98;;;;;;;10.89;100.00;102272.41;5026816;28;20092;-75
2023/04/18 11:12:46;;;;;;;24.83;13.73;;;;;;;10.84;100.00;102255.28;5031818;28;20049;-75
2023/04/18 11:15:20;;;;;;;29.40;14.55;;;;;;;10.96;100.00;102269.72;5018362;28;20144;-76
2023/04/18 11:17:59;;;;;;;32.40;17.05;;;;;;;11.00;100.00;102264.97;5029944;28;20056;-75
2023/04/18 11:20:26;;;;;;;30.52;16.90;;;;;;;11.18;100.00;102265.91;5017023;28;20078;-76